sensor_id;sensor_type;location;lat;lon;timestamp;pressure;altitude;pressure_sealevel;temperature
32039;BMP280;18549;42.286;22.688;2023-03-31T00:02:22;95685.31;;;14.60
32039;BMP280;18549;42.286;22.688;2023-03-31T00:04:49;95671.72;;;14.33
32039;BMP280;18549;42.286;22.688;2023-03-31T00:07:19;95696.06;;;14.30
32039;BMP280;18549;42.286;22.688;2023-03-31T00:09:48;95685.31;;;14.29
32039;BMP280;18549;42.286;22.688;2023-03-31T00:12:20;95682.91;;;14.28
32039;BMP280;18549;42.286;22.688;2023-03-31T00:14:47;95691.00;;;14.20
32039;BMP280;18549;42.286;22.688;2023-03-31T00:17:16;95672.97;;;14.17
32039;BMP280;18549;42.286;22.688;2023-03-31T00:19:43;95669.00;;;14.15
32039;BMP280;18549;42.286;22.688;2023-03-31T00:22:14;95676.38;;;14.16
32039;BMP280;18549;42.286;22.688;2023-03-31T00:24:43;95672.31;;;14.15
32039;BMP280;18549;42.286;22.688;2023-03-31T00:27:10;95684.53;;;14.18
32039;BMP280;18549;42.286;22.688;2023-03-31T00:29:39;95685.66;;;14.25
32039;BMP280;18549;42.286;22.688;2023-03-31T00:32:08;95673.19;;;14.25
32039;BMP280;18549;42.286;22.688;2023-03-31T00:34:36;95673.38;;;14.33
32039;BMP280;18549;42.286;22.688;2023-03-31T00:37:03;95665.56;;;14.37
32039;BMP280;18549;42.286;22.688;2023-03-31T00:39:30;95671.09;;;14.41
32039;BMP280;18549;42.286;22.688;2023-03-31T00:42:01;95668.62;;;14.41
32039;BMP280;18549;42.286;22.688;2023-03-31T00:44:29;95664.16;;;14.44
32039;BMP280;18549;42.286;22.688;2023-03-31T00:47:02;95660.66;;;14.47
32039;BMP280;18549;42.286;22.688;2023-03-31T00:49:33;95663.13;;;14.47
32039;BMP280;18549;42.286;22.688;2023-03-31T00:52:05;95656.16;;;14.30
32039;BMP280;18549;42.286;22.688;2023-03-31T00:54:35;95651.66;;;14.24
32039;BMP280;18549;42.286;22.688;2023-03-31T00:57:04;95658.47;;;14.22
32039;BMP280;18549;42.286;22.688;2023-03-31T00:59:35;95653.34;;;14.23
32039;BMP280;18549;42.286;22.688;2023-03-31T01:02:03;95653.78;;;14.28
32039;BMP280;18549;42.286;22.688;2023-03-31T01:04:33;95658.31;;;14.34
32039;BMP280;18549;42.286;22.688;2023-03-31T01:07:07;95645.28;;;14.31
32039;BMP280;18549;42.286;22.688;2023-03-31T01:09:37;95656.41;;;14.27
32039;BMP280;18549;42.286;22.688;2023-03-31T01:12:07;95645.00;;;14.14
32039;BMP280;18549;42.286;22.688;2023-03-31T01:14:38;95664.34;;;14.21
32039;BMP280;18549;42.286;22.688;2023-03-31T01:17:05;95652.66;;;14.21
32039;BMP280;18549;42.286;22.688;2023-03-31T01:19:45;95664.16;;;14.13
32039;BMP280;18549;42.286;22.688;2023-03-31T01:25:51;95658.94;;;14.16
32039;BMP280;18549;42.286;22.688;2023-03-31T01:28:32;95678.19;;;14.14
32039;BMP280;18549;42.286;22.688;2023-03-31T01:31:31;95678.87;;;14.16
32039;BMP280;18549;42.286;22.688;2023-03-31T01:37:35;95692.91;;;14.17
32039;BMP280;18549;42.286;22.688;2023-03-31T01:40:34;95704.59;;;14.17
32039;BMP280;18549;42.286;22.688;2023-03-31T01:43:09;95709.03;;;14.13
32039;BMP280;18549;42.286;22.688;2023-03-31T01:45:47;95699.84;;;14.14
32039;BMP280;18549;42.286;22.688;2023-03-31T01:48:30;95703.47;;;14.10
32039;BMP280;18549;42.286;22.688;2023-03-31T01:51:00;95707.91;;;14.06
32039;BMP280;18549;42.286;22.688;2023-03-31T01:53:33;95709.47;;;14.07
32039;BMP280;18549;42.286;22.688;2023-03-31T01:56:06;95704.25;;;14.10
32039;BMP280;18549;42.286;22.688;2023-03-31T01:58:37;95700.88;;;14.11
32039;BMP280;18549;42.286;22.688;2023-03-31T02:01:09;95689.97;;;14.12
32039;BMP280;18549;42.286;22.688;2023-03-31T02:03:45;95680.56;;;14.16
32039;BMP280;18549;42.286;22.688;2023-03-31T02:06:18;95677.31;;;14.15
32039;BMP280;18549;42.286;22.688;2023-03-31T02:08:50;95691.34;;;14.16
32039;BMP280;18549;42.286;22.688;2023-03-31T02:11:24;95693.81;;;14.16
32039;BMP280;18549;42.286;22.688;2023-03-31T02:13:52;95697.25;;;14.15
32039;BMP280;18549;42.286;22.688;2023-03-31T02:16:23;95707.22;;;14.15
32039;BMP280;18549;42.286;22.688;2023-03-31T02:18:57;95711.38;;;14.15
32039;BMP280;18549;42.286;22.688;2023-03-31T02:21:27;95709.03;;;14.13
32039;BMP280;18549;42.286;22.688;2023-03-31T02:23:56;95695.63;;;14.14
32039;BMP280;18549;42.286;22.688;2023-03-31T02:26:28;95703.13;;;14.14
32039;BMP280;18549;42.286;22.688;2023-03-31T02:28:57;95695.88;;;14.11
32039;BMP280;18549;42.286;22.688;2023-03-31T02:31:27;95695.44;;;14.06
32039;BMP280;18549;42.286;22.688;2023-03-31T02:33:57;95707.91;;;14.06
32039;BMP280;18549;42.286;22.688;2023-03-31T02:36:25;95708.94;;;14.04
32039;BMP280;18549;42.286;22.688;2023-03-31T02:38:55;95706.44;;;14.04
32039;BMP280;18549;42.286;22.688;2023-03-31T02:41:23;95710.59;;;14.03
32039;BMP280;18549;42.286;22.688;2023-03-31T02:43:51;95706.53;;;14.02
32039;BMP280;18549;42.286;22.688;2023-03-31T02:46:20;95701.66;;;13.90
32039;BMP280;18549;42.286;22.688;2023-03-31T02:48:50;95710.34;;;13.84
32039;BMP280;18549;42.286;22.688;2023-03-31T02:51:46;95685.22;;;13.77
32039;BMP280;18549;42.286;22.688;2023-03-31T02:54:43;95694.28;;;13.67
32039;BMP280;18549;42.286;22.688;2023-03-31T03:00:20;95701.31;;;13.73
32039;BMP280;18549;42.286;22.688;2023-03-31T03:02:58;95700.19;;;13.77
32039;BMP280;18549;42.286;22.688;2023-03-31T03:05:34;95695.44;;;13.63
32039;BMP280;18549;42.286;22.688;2023-03-31T03:08:08;95699.72;;;13.61
32039;BMP280;18549;42.286;22.688;2023-03-31T03:10:52;95690.66;;;13.60
32039;BMP280;18549;42.286;22.688;2023-03-31T03:13:27;95687.84;;;13.53
32039;BMP280;18549;42.286;22.688;2023-03-31T03:16:04;95700.41;;;13.52
32039;BMP280;18549;42.286;22.688;2023-03-31T03:18:34;95699.38;;;13.54
32039;BMP280;18549;42.286;22.688;2023-03-31T03:21:02;95691.56;;;13.59
32039;BMP280;18549;42.286;22.688;2023-03-31T03:23:31;95687.72;;;13.55
32039;BMP280;18549;42.286;22.688;2023-03-31T03:25:58;95679.69;;;13.52
32039;BMP280;18549;42.286;22.688;2023-03-31T03:28:25;95686.34;;;13.51
32039;BMP280;18549;42.286;22.688;2023-03-31T03:30:52;95682.88;;;13.53
32039;BMP280;18549;42.286;22.688;2023-03-31T03:33:21;95677.06;;;13.53
32039;BMP280;18549;42.286;22.688;2023-03-31T03:35:49;95680.72;;;13.49
32039;BMP280;18549;42.286;22.688;2023-03-31T03:38:16;95685.69;;;13.49
32039;BMP280;18549;42.286;22.688;2023-03-31T03:40:43;95687.25;;;13.50
32039;BMP280;18549;42.286;22.688;2023-03-31T03:43:09;95681.25;;;13.52
32039;BMP280;18549;42.286;22.688;2023-03-31T03:45:36;95672.56;;;13.47
32039;BMP280;18549;42.286;22.688;2023-03-31T03:48:03;95674.13;;;13.48
32039;BMP280;18549;42.286;22.688;2023-03-31T03:50:36;95681.81;;;13.34
32039;BMP280;18549;42.286;22.688;2023-03-31T03:53:04;95682.94;;;13.30
32039;BMP280;18549;42.286;22.688;2023-03-31T03:55:31;95688.22;;;13.26
32039;BMP280;18549;42.286;22.688;2023-03-31T03:57:58;95693.44;;;13.23
32039;BMP280;18549;42.286;22.688;2023-03-31T04:00:25;95697.63;;;13.22
32039;BMP280;18549;42.286;22.688;2023-03-31T04:02:55;95697.41;;;13.25
32039;BMP280;18549;42.286;22.688;2023-03-31T04:05:22;95697.41;;;13.25
32039;BMP280;18549;42.286;22.688;2023-03-31T04:07:51;95693.44;;;13.23
32039;BMP280;18549;42.286;22.688;2023-03-31T04:10:20;95697.88;;;13.19
32039;BMP280;18549;42.286;22.688;2023-03-31T04:12:47;95692.31;;;13.16
32039;BMP280;18549;42.286;22.688;2023-03-31T04:15:14;95683.38;;;13.14
32039;BMP280;18549;42.286;22.688;2023-03-31T04:17:41;95678.72;;;13.09
32039;BMP280;18549;42.286;22.688;2023-03-31T04:20:16;95684.00;;;13.05
32039;BMP280;18549;42.286;22.688;2023-03-31T04:22:43;95691.00;;;13.00
32039;BMP280;18549;42.286;22.688;2023-03-31T04:25:15;95688.75;;;12.97
32039;BMP280;18549;42.286;22.688;2023-03-31T04:27:44;95688.63;;;12.98
32039;BMP280;18549;42.286;22.688;2023-03-31T04:30:16;95688.53;;;13.00
32039;BMP280;18549;42.286;22.688;2023-03-31T04:32:48;95705.25;;;12.98
32039;BMP280;18549;42.286;22.688;2023-03-31T04:35:16;95710.00;;;12.90
32039;BMP280;18549;42.286;22.688;2023-03-31T04:37:46;95699.47;;;12.86
32039;BMP280;18549;42.286;22.688;2023-03-31T04:40:14;95703.03;;;12.83
32039;BMP280;18549;42.286;22.688;2023-03-31T04:42:42;95704.97;;;12.79
32039;BMP280;18549;42.286;22.688;2023-03-31T04:45:10;95706.78;;;12.77
32039;BMP280;18549;42.286;22.688;2023-03-31T04:47:38;95719.91;;;12.79
32039;BMP280;18549;42.286;22.688;2023-03-31T04:50:06;95702.69;;;12.76
32039;BMP280;18549;42.286;22.688;2023-03-31T04:52:34;95700.28;;;12.75
32039;BMP280;18549;42.286;22.688;2023-03-31T04:55:02;95697.00;;;12.74
32039;BMP280;18549;42.286;22.688;2023-03-31T04:57:30;95702.00;;;12.74
32039;BMP280;18549;42.286;22.688;2023-03-31T04:59:58;95714.44;;;12.74
32039;BMP280;18549;42.286;22.688;2023-03-31T05:02:28;95706.06;;;12.75
32039;BMP280;18549;42.286;22.688;2023-03-31T05:04:56;95699.31;;;12.77
32039;BMP280;18549;42.286;22.688;2023-03-31T05:07:24;95695.94;;;12.78
32039;BMP280;18549;42.286;22.688;2023-03-31T05:09:54;95690.97;;;12.78
32039;BMP280;18549;42.286;22.688;2023-03-31T05:12:33;95686.37;;;12.72
32039;BMP280;18549;42.286;22.688;2023-03-31T05:15:03;95691.06;;;12.77
32039;BMP280;18549;42.286;22.688;2023-03-31T05:17:32;95688.56;;;12.77
32039;BMP280;18549;42.286;22.688;2023-03-31T05:19:59;95678.00;;;12.73
32039;BMP280;18549;42.286;22.688;2023-03-31T05:22:33;95670.44;;;12.75
32039;BMP280;18549;42.286;22.688;2023-03-31T05:25:00;95662.59;;;12.81
32039;BMP280;18549;42.286;22.688;2023-03-31T05:27:30;95659.28;;;12.80
32039;BMP280;18549;42.286;22.688;2023-03-31T05:29:57;95669.59;;;12.86
32039;BMP280;18549;42.286;22.688;2023-03-31T05:32:26;95661.59;;;12.94
32039;BMP280;18549;42.286;22.688;2023-03-31T05:34:54;95665.34;;;12.99
32039;BMP280;18549;42.286;22.688;2023-03-31T05:37:22;95666.41;;;13.08
32039;BMP280;18549;42.286;22.688;2023-03-31T05:39:49;95678.63;;;13.11
32039;BMP280;18549;42.286;22.688;2023-03-31T05:42:18;95675.22;;;13.12
32039;BMP280;18549;42.286;22.688;2023-03-31T05:44:46;95666.63;;;13.16
32039;BMP280;18549;42.286;22.688;2023-03-31T05:47:15;95659.16;;;13.16
32039;BMP280;18549;42.286;22.688;2023-03-31T05:49:42;95656.44;;;13.18
32039;BMP280;18549;42.286;22.688;2023-03-31T05:52:11;95657.34;;;13.18
32039;BMP280;18549;42.286;22.688;2023-03-31T05:54:38;95658.94;;;13.18
32039;BMP280;18549;42.286;22.688;2023-03-31T05:57:07;95660.75;;;13.27
32039;BMP280;18549;42.286;22.688;2023-03-31T05:59:34;95659.97;;;13.27
32039;BMP280;18549;42.286;22.688;2023-03-31T06:02:04;95655.78;;;13.27
32039;BMP280;18549;42.286;22.688;2023-03-31T06:04:31;95659.97;;;13.27
32039;BMP280;18549;42.286;22.688;2023-03-31T06:06:57;95663.81;;;13.31
32039;BMP280;18549;42.286;22.688;2023-03-31T06:09:26;95663.50;;;13.35
32039;BMP280;18549;42.286;22.688;2023-03-31T06:11:53;95669.25;;;13.36
32039;BMP280;18549;42.286;22.688;2023-03-31T06:14:20;95661.66;;;13.26
32039;BMP280;18549;42.286;22.688;2023-03-31T06:16:47;95658.72;;;13.21
32039;BMP280;18549;42.286;22.688;2023-03-31T06:19:16;95652.84;;;13.22
32039;BMP280;18549;42.286;22.688;2023-03-31T06:21:43;95655.41;;;13.21
32039;BMP280;18549;42.286;22.688;2023-03-31T06:24:10;95646.06;;;13.24
32039;BMP280;18549;42.286;22.688;2023-03-31T06:26:37;95657.37;;;13.28
32039;BMP280;18549;42.286;22.688;2023-03-31T06:29:05;95646.06;;;13.24
32039;BMP280;18549;42.286;22.688;2023-03-31T06:31:31;95654.31;;;13.25
32039;BMP280;18549;42.286;22.688;2023-03-31T06:33:59;95656.00;;;13.24
32039;BMP280;18549;42.286;22.688;2023-03-31T06:36:27;95650.56;;;13.30
32039;BMP280;18549;42.286;22.688;2023-03-31T06:38:54;95645.81;;;13.27
32039;BMP280;18549;42.286;22.688;2023-03-31T06:41:21;95648.56;;;13.35
32039;BMP280;18549;42.286;22.688;2023-03-31T06:43:49;95641.97;;;13.34
32039;BMP280;18549;42.286;22.688;2023-03-31T06:46:16;95639.75;;;13.42
32039;BMP280;18549;42.286;22.688;2023-03-31T06:48:43;95645.59;;;13.52
32039;BMP280;18549;42.286;22.688;2023-03-31T06:51:11;95632.47;;;13.50
32039;BMP280;18549;42.286;22.688;2023-03-31T06:53:39;95632.81;;;13.56
32039;BMP280;18549;42.286;22.688;2023-03-31T06:56:07;95632.94;;;13.66
32039;BMP280;18549;42.286;22.688;2023-03-31T06:58:34;95627.16;;;13.76
32039;BMP280;18549;42.286;22.688;2023-03-31T07:01:01;95613.19;;;13.84
32039;BMP280;18549;42.286;22.688;2023-03-31T07:03:28;95606.97;;;13.90
32039;BMP280;18549;42.286;22.688;2023-03-31T07:05:55;95603.31;;;13.94
32039;BMP280;18549;42.286;22.688;2023-03-31T07:08:23;95598.69;;;14.00
32039;BMP280;18549;42.286;22.688;2023-03-31T07:10:55;95605.03;;;14.04
32039;BMP280;18549;42.286;22.688;2023-03-31T07:13:23;95604.25;;;13.93
32039;BMP280;18549;42.286;22.688;2023-03-31T07:15:52;95612.50;;;13.93
32039;BMP280;18549;42.286;22.688;2023-03-31T07:18:24;95605.94;;;14.03
32039;BMP280;18549;42.286;22.688;2023-03-31T07:20:56;95602.87;;;14.11
32039;BMP280;18549;42.286;22.688;2023-03-31T07:23:23;95600.03;;;14.15
32039;BMP280;18549;42.286;22.688;2023-03-31T07:25:50;95602.97;;;14.09
32039;BMP280;18549;42.286;22.688;2023-03-31T07:28:18;95590.94;;;14.14
32039;BMP280;18549;42.286;22.688;2023-03-31T07:30:45;95591.22;;;14.00
32039;BMP280;18549;42.286;22.688;2023-03-31T07:33:12;95590.31;;;14.01
32039;BMP280;18549;42.286;22.688;2023-03-31T07:35:39;95587.09;;;14.10
32039;BMP280;18549;42.286;22.688;2023-03-31T07:38:07;95582.00;;;14.12
32039;BMP280;18549;42.286;22.688;2023-03-31T07:40:35;95578.50;;;14.14
32039;BMP280;18549;42.286;22.688;2023-03-31T07:43:02;95570.47;;;14.11
32039;BMP280;18549;42.286;22.688;2023-03-31T07:45:31;95572.81;;;14.12
32039;BMP280;18549;42.286;22.688;2023-03-31T07:48:03;95568.62;;;14.13
32039;BMP280;18549;42.286;22.688;2023-03-31T07:50:30;95574.19;;;14.16
32039;BMP280;18549;42.286;22.688;2023-03-31T07:52:57;95553.38;;;13.95
32039;BMP280;18549;42.286;22.688;2023-03-31T07:55:24;95564.03;;;13.97
32039;BMP280;18549;42.286;22.688;2023-03-31T07:57:51;95560.44;;;14.01
32039;BMP280;18549;42.286;22.688;2023-03-31T08:00:19;95559.75;;;14.19
32039;BMP280;18549;42.286;22.688;2023-03-31T08:02:47;95563.25;;;14.28
32039;BMP280;18549;42.286;22.688;2023-03-31T08:05:16;95557.09;;;14.43
32039;BMP280;18549;42.286;22.688;2023-03-31T08:07:45;95562.81;;;14.54
32039;BMP280;18549;42.286;22.688;2023-03-31T08:10:14;95557.69;;;14.55
32039;BMP280;18549;42.286;22.688;2023-03-31T08:12:42;95556.09;;;14.54
32039;BMP280;18549;42.286;22.688;2023-03-31T08:15:09;95545.78;;;14.59
32039;BMP280;18549;42.286;22.688;2023-03-31T08:17:36;95542.25;;;14.61
32039;BMP280;18549;42.286;22.688;2023-03-31T08:20:05;95530.19;;;14.66
32039;BMP280;18549;42.286;22.688;2023-03-31T08:22:36;95535.84;;;14.68
32039;BMP280;18549;42.286;22.688;2023-03-31T08:25:03;95517.47;;;14.69
32039;BMP280;18549;42.286;22.688;2023-03-31T08:27:32;95518.78;;;14.73
32039;BMP280;18549;42.286;22.688;2023-03-31T08:29:58;95517.38;;;14.80
32039;BMP280;18549;42.286;22.688;2023-03-31T08:32:30;95512.81;;;14.85
32039;BMP280;18549;42.286;22.688;2023-03-31T08:34:57;95507.53;;;14.79
32039;BMP280;18549;42.286;22.688;2023-03-31T08:37:25;95502.34;;;14.91
32039;BMP280;18549;42.286;22.688;2023-03-31T08:39:55;95502.88;;;14.94
32039;BMP280;18549;42.286;22.688;2023-03-31T08:42:34;95487.03;;;15.05
32039;BMP280;18549;42.286;22.688;2023-03-31T08:45:11;95485.00;;;15.19
32039;BMP280;18549;42.286;22.688;2023-03-31T08:47:42;95482.81;;;15.35
32039;BMP280;18549;42.286;22.688;2023-03-31T08:50:13;95471.28;;;15.43
32039;BMP280;18549;42.286;22.688;2023-03-31T08:52:48;95462.75;;;15.55
32039;BMP280;18549;42.286;22.688;2023-03-31T08:55:21;95463.25;;;15.68
32039;BMP280;18549;42.286;22.688;2023-03-31T08:57:55;95457.75;;;15.74
32039;BMP280;18549;42.286;22.688;2023-03-31T09:00:24;95456.97;;;15.92
32039;BMP280;18549;42.286;22.688;2023-03-31T09:02:55;95447.50;;;16.05
32039;BMP280;18549;42.286;22.688;2023-03-31T09:05:36;95433.16;;;16.07
32039;BMP280;18549;42.286;22.688;2023-03-31T09:08:13;95421.97;;;16.20
32039;BMP280;18549;42.286;22.688;2023-03-31T09:10:51;95419.84;;;16.34
32039;BMP280;18549;42.286;22.688;2023-03-31T09:13:46;95424.00;;;16.52
32039;BMP280;18549;42.286;22.688;2023-03-31T09:16:21;95419.38;;;16.57
32039;BMP280;18549;42.286;22.688;2023-03-31T09:18:51;95413.88;;;16.81
32039;BMP280;18549;42.286;22.688;2023-03-31T09:21:27;95409.38;;;16.84
32039;BMP280;18549;42.286;22.688;2023-03-31T09:24:02;95408.28;;;16.96
32039;BMP280;18549;42.286;22.688;2023-03-31T09:26:36;95401.59;;;17.14
32039;BMP280;18549;42.286;22.688;2023-03-31T09:29:06;95393.66;;;17.18
32039;BMP280;18549;42.286;22.688;2023-03-31T09:31:37;95395.69;;;17.32
32039;BMP280;18549;42.286;22.688;2023-03-31T09:34:12;95396.84;;;17.37
32039;BMP280;18549;42.286;22.688;2023-03-31T09:36:40;95395.34;;;17.44
32039;BMP280;18549;42.286;22.688;2023-03-31T09:39:11;95400.53;;;17.60
32039;BMP280;18549;42.286;22.688;2023-03-31T09:41:42;95378.25;;;17.74
32039;BMP280;18549;42.286;22.688;2023-03-31T09:44:21;95381.59;;;17.83
32039;BMP280;18549;42.286;22.688;2023-03-31T09:46:50;95382.44;;;18.08
32039;BMP280;18549;42.286;22.688;2023-03-31T09:49:19;95379.63;;;18.11
32039;BMP280;18549;42.286;22.688;2023-03-31T09:51:48;95378.62;;;18.21
32039;BMP280;18549;42.286;22.688;2023-03-31T09:54:25;95375.19;;;18.30
32039;BMP280;18549;42.286;22.688;2023-03-31T09:56:55;95377.56;;;18.32
32039;BMP280;18549;42.286;22.688;2023-03-31T09:59:31;95357.25;;;18.43
32039;BMP280;18549;42.286;22.688;2023-03-31T10:02:01;95353.38;;;18.56
32039;BMP280;18549;42.286;22.688;2023-03-31T10:04:31;95354.19;;;18.64
32039;BMP280;18549;42.286;22.688;2023-03-31T10:06:59;95343.87;;;18.75
32039;BMP280;18549;42.286;22.688;2023-03-31T10:09:29;95347.19;;;18.76
32039;BMP280;18549;42.286;22.688;2023-03-31T10:12:02;95328.87;;;18.83
32039;BMP280;18549;42.286;22.688;2023-03-31T10:14:39;95324.16;;;18.88
32039;BMP280;18549;42.286;22.688;2023-03-31T10:17:11;95327.69;;;19.03
32039;BMP280;18549;42.286;22.688;2023-03-31T10:19:46;95336.03;;;19.11
32039;BMP280;18549;42.286;22.688;2023-03-31T10:22:15;95317.69;;;19.26
32039;BMP280;18549;42.286;22.688;2023-03-31T10:25:08;95312.00;;;19.17
32039;BMP280;18549;42.286;22.688;2023-03-31T10:27:39;95316.72;;;19.27
32039;BMP280;18549;42.286;22.688;2023-03-31T10:30:10;95315.78;;;19.28
32039;BMP280;18549;42.286;22.688;2023-03-31T10:32:39;95318.63;;;19.33
32039;BMP280;18549;42.286;22.688;2023-03-31T10:35:14;95305.13;;;19.26
32039;BMP280;18549;42.286;22.688;2023-03-31T10:37:47;95302.44;;;19.44
32039;BMP280;18549;42.286;22.688;2023-03-31T10:40:22;95302.75;;;19.33
32039;BMP280;18549;42.286;22.688;2023-03-31T10:42:58;95296.47;;;19.52
32039;BMP280;18549;42.286;22.688;2023-03-31T10:45:27;95287.69;;;19.56
32039;BMP280;18549;42.286;22.688;2023-03-31T10:47:57;95296.66;;;19.43
32039;BMP280;18549;42.286;22.688;2023-03-31T10:50:30;95290.66;;;19.36
32039;BMP280;18549;42.286;22.688;2023-03-31T10:53:02;95285.00;;;19.18
32039;BMP280;18549;42.286;22.688;2023-03-31T10:55:34;95287.34;;;19.04
32039;BMP280;18549;42.286;22.688;2023-03-31T10:58:08;95275.97;;;18.84
32039;BMP280;18549;42.286;22.688;2023-03-31T11:00:51;95284.91;;;18.79
32039;BMP280;18549;42.286;22.688;2023-03-31T11:03:44;95276.25;;;18.74
32039;BMP280;18549;42.286;22.688;2023-03-31T11:06:18;95276.09;;;18.75
32039;BMP280;18549;42.286;22.688;2023-03-31T11:08:51;95264.47;;;18.66
32039;BMP280;18549;42.286;22.688;2023-03-31T11:11:34;95257.56;;;18.60
32039;BMP280;18549;42.286;22.688;2023-03-31T11:14:11;95249.41;;;18.58
32039;BMP280;18549;42.286;22.688;2023-03-31T11:16:46;95255.97;;;18.59
32039;BMP280;18549;42.286;22.688;2023-03-31T11:19:26;95249.84;;;18.54
32039;BMP280;18549;42.286;22.688;2023-03-31T11:22:00;95237.94;;;18.64
32039;BMP280;18549;42.286;22.688;2023-03-31T11:27:38;95237.16;;;18.63
32039;BMP280;18549;42.286;22.688;2023-03-31T11:30:10;95233.09;;;18.70
32039;BMP280;18549;42.286;22.688;2023-03-31T11:32:54;95234.97;;;18.68
32039;BMP280;18549;42.286;22.688;2023-03-31T11:35:40;95221.00;;;18.66
32039;BMP280;18549;42.286;22.688;2023-03-31T11:38:21;95208.94;;;18.69
32039;BMP280;18549;42.286;22.688;2023-03-31T11:40:58;95200.78;;;18.67
32039;BMP280;18549;42.286;22.688;2023-03-31T11:43:30;95196.22;;;18.71
32039;BMP280;18549;42.286;22.688;2023-03-31T11:46:00;95180.69;;;18.67
32039;BMP280;18549;42.286;22.688;2023-03-31T11:48:36;95183.50;;;18.56
32039;BMP280;18549;42.286;22.688;2023-03-31T11:51:10;95178.47;;;18.64
32039;BMP280;18549;42.286;22.688;2023-03-31T11:53:41;95181.81;;;18.88
32039;BMP280;18549;42.286;22.688;2023-03-31T11:56:10;95172.72;;;19.03
32039;BMP280;18549;42.286;22.688;2023-03-31T11:58:43;95160.81;;;19.05
32039;BMP280;18549;42.286;22.688;2023-03-31T12:01:15;95155.28;;;19.25
32039;BMP280;18549;42.286;22.688;2023-03-31T12:03:51;95143.81;;;19.39
32039;BMP280;18549;42.286;22.688;2023-03-31T12:06:26;95139.19;;;19.58
32039;BMP280;18549;42.286;22.688;2023-03-31T12:09:02;95143.06;;;19.76
32039;BMP280;18549;42.286;22.688;2023-03-31T12:11:36;95126.91;;;19.79
32039;BMP280;18549;42.286;22.688;2023-03-31T12:14:16;95133.19;;;19.83
32039;BMP280;18549;42.286;22.688;2023-03-31T12:16:49;95127.25;;;19.68
32039;BMP280;18549;42.286;22.688;2023-03-31T12:19:20;95106.38;;;19.59
32039;BMP280;18549;42.286;22.688;2023-03-31T12:21:50;95107.13;;;19.68
32039;BMP280;18549;42.286;22.688;2023-03-31T12:24:18;95102.25;;;19.66
32039;BMP280;18549;42.286;22.688;2023-03-31T12:26:53;95098.88;;;19.89
32039;BMP280;18549;42.286;22.688;2023-03-31T12:29:33;95103.34;;;20.10
32039;BMP280;18549;42.286;22.688;2023-03-31T12:32:04;95108.13;;;20.27
32039;BMP280;18549;42.286;22.688;2023-03-31T12:34:44;95100.19;;;20.38
32039;BMP280;18549;42.286;22.688;2023-03-31T12:40:34;95091.41;;;20.34
32039;BMP280;18549;42.286;22.688;2023-03-31T12:43:18;95091.03;;;20.22
32039;BMP280;18549;42.286;22.688;2023-03-31T12:45:54;95075.63;;;20.17
32039;BMP280;18549;42.286;22.688;2023-03-31T12:48:39;95084.97;;;20.09
32039;BMP280;18549;42.286;22.688;2023-03-31T12:51:19;95082.16;;;20.04
32039;BMP280;18549;42.286;22.688;2023-03-31T12:54:00;95073.72;;;19.97
32039;BMP280;18549;42.286;22.688;2023-03-31T12:57:01;95078.03;;;20.11
32039;BMP280;18549;42.286;22.688;2023-03-31T12:59:31;95074.34;;;20.21
32039;BMP280;18549;42.286;22.688;2023-03-31T13:02:22;95064.06;;;20.31
32039;BMP280;18549;42.286;22.688;2023-03-31T13:04:50;95057.31;;;20.01
32039;BMP280;18549;42.286;22.688;2023-03-31T13:07:37;95059.88;;;20.23
32039;BMP280;18549;42.286;22.688;2023-03-31T13:10:25;95050.28;;;20.19
32039;BMP280;18549;42.286;22.688;2023-03-31T13:12:59;95037.22;;;20.23
32039;BMP280;18549;42.286;22.688;2023-03-31T13:15:27;95035.44;;;20.32
32039;BMP280;18549;42.286;22.688;2023-03-31T13:17:59;95038.87;;;20.31
32039;BMP280;18549;42.286;22.688;2023-03-31T13:20:34;95029.66;;;20.46
32039;BMP280;18549;42.286;22.688;2023-03-31T13:23:04;95024.75;;;20.52
32039;BMP280;18549;42.286;22.688;2023-03-31T13:25:48;95022.16;;;20.60
32039;BMP280;18549;42.286;22.688;2023-03-31T13:28:23;95006.50;;;20.86
32039;BMP280;18549;42.286;22.688;2023-03-31T13:30:55;94992.06;;;20.95
32039;BMP280;18549;42.286;22.688;2023-03-31T13:33:26;94986.97;;;21.03
32039;BMP280;18549;42.286;22.688;2023-03-31T13:36:09;94975.38;;;21.22
32039;BMP280;18549;42.286;22.688;2023-03-31T13:38:49;94968.19;;;21.48
32039;BMP280;18549;42.286;22.688;2023-03-31T13:41:29;94977.06;;;21.79
32039;BMP280;18549;42.286;22.688;2023-03-31T13:44:21;94960.38;;;21.99
32039;BMP280;18549;42.286;22.688;2023-03-31T13:47:15;94963.22;;;22.31
32039;BMP280;18549;42.286;22.688;2023-03-31T13:49:53;94953.44;;;22.21
32039;BMP280;18549;42.286;22.688;2023-03-31T13:52:34;94940.87;;;22.34
32039;BMP280;18549;42.286;22.688;2023-03-31T13:55:27;94943.81;;;22.11
32039;BMP280;18549;42.286;22.688;2023-03-31T14:01:35;94945.47;;;22.04
32039;BMP280;18549;42.286;22.688;2023-03-31T14:04:18;94942.50;;;22.15
32039;BMP280;18549;42.286;22.688;2023-03-31T14:06:55;94940.34;;;22.39
32039;BMP280;18549;42.286;22.688;2023-03-31T14:09:27;94940.50;;;22.58
32039;BMP280;18549;42.286;22.688;2023-03-31T14:11:59;94941.72;;;22.68
32039;BMP280;18549;42.286;22.688;2023-03-31T14:14:27;94939.44;;;22.73
32039;BMP280;18549;42.286;22.688;2023-03-31T14:16:56;94947.19;;;22.72
32039;BMP280;18549;42.286;22.688;2023-03-31T14:19:51;94945.56;;;22.58
32039;BMP280;18549;42.286;22.688;2023-03-31T14:22:31;94934.53;;;22.65
32039;BMP280;18549;42.286;22.688;2023-03-31T14:25:10;94921.28;;;22.63
32039;BMP280;18549;42.286;22.688;2023-03-31T14:27:58;94920.28;;;22.58
32039;BMP280;18549;42.286;22.688;2023-03-31T14:30:36;94911.19;;;22.36
32039;BMP280;18549;42.286;22.688;2023-03-31T14:33:17;94912.56;;;22.32
32039;BMP280;18549;42.286;22.688;2023-03-31T14:35:52;94903.25;;;22.12
32039;BMP280;18549;42.286;22.688;2023-03-31T14:38:26;94904.25;;;21.97
32039;BMP280;18549;42.286;22.688;2023-03-31T14:40:55;94911.66;;;21.57
32039;BMP280;18549;42.286;22.688;2023-03-31T14:43:27;94904.19;;;21.70
32039;BMP280;18549;42.286;22.688;2023-03-31T14:45:59;94910.28;;;21.40